Time;durP1;ratioP1;P1;durP2;ratioP2;P2;SDS_P1;SDS_P2;PMS_P1;PMS_P2;Temp;Humidity;BMP_temperature;BMP_pressure;BME280_temperature;BME280_humidity;BME280_pressure;Samples;Min_cycle;Max_cycle;Signal;HPM_P1;HPM_P2
2024/02/09 00:01:14;;;;;;;3.07;2.30;;;0.90;99.90;;;;;;5061131;28;20263;-85
2024/02/09 00:03:41;;;;;;;4.40;2.87;;;0.90;99.90;;;;;;5062894;28;20241;-84
2024/02/09 00:06:07;;;;;;;3.00;2.20;;;1.10;99.90;;;;;;5064246;28;20206;-84
2024/02/09 00:08:40;;;;;;;3.67;2.70;;;0.90;99.90;;;;;;5056786;28;20237;-83
2024/02/09 00:11:11;;;;;;;4.57;2.80;;;0.90;99.90;;;;;;5057170;28;20215;-85
2024/02/09 00:13:39;;;;;;;4.17;2.87;;;0.90;99.90;;;;;;5061626;28;20203;-85
2024/02/09 00:16:06;;;;;;;3.67;2.67;;;0.90;99.90;;;;;;5059475;28;20249;-85
2024/02/09 00:18:33;;;;;;;3.70;2.70;;;0.30;99.90;;;;;;5055816;28;20255;-83
2024/02/09 00:21:00;;;;;;;2.53;2.17;;;0.90;99.90;;;;;;5056118;28;20217;-85
2024/02/09 00:23:27;;;;;;;4.37;2.70;;;0.90;99.90;;;;;;5049063;28;20204;-85
2024/02/09 00:25:55;;;;;;;4.50;3.07;;;0.90;99.90;;;;;;5060544;28;20206;-85
2024/02/09 00:28:22;;;;;;;4.07;2.90;;;0.90;99.90;;;;;;5053161;28;20238;-85
2024/02/09 00:30:49;;;;;;;3.80;2.63;;;0.90;99.90;;;;;;5053473;28;20206;-85
2024/02/09 00:33:16;;;;;;;4.83;2.90;;;0.90;99.90;;;;;;5056616;28;20688;-83
2024/02/09 00:35:42;;;;;;;4.67;3.20;;;0.90;99.90;;;;;;5053233;28;20210;-85
2024/02/09 00:38:10;;;;;;;6.53;3.20;;;0.90;99.90;;;;;;5054272;28;20226;-84
2024/02/09 00:40:38;;;;;;;4.83;3.30;;;0.90;99.90;;;;;;5056496;28;20207;-84
2024/02/09 00:43:06;;;;;;;3.90;2.63;;;0.90;99.90;;;;;;5060118;28;20203;-85
2024/02/09 00:45:34;;;;;;;4.40;3.23;;;0.90;99.90;;;;;;5059456;28;20679;-86
2024/02/09 00:48:02;;;;;;;4.73;3.07;;;0.90;99.90;;;;;;5056681;28;20223;-85
2024/02/09 00:50:30;;;;;;;4.50;2.93;;;0.90;99.90;;;;;;5059041;28;20272;-85
2024/02/09 00:53:00;;;;;;;4.40;2.67;;;0.90;99.90;;;;;;5058535;28;20195;-83
2024/02/09 00:55:29;;;;;;;3.60;2.70;;;0.90;99.90;;;;;;5056733;28;20209;-82
2024/02/09 00:57:56;;;;;;;3.50;2.80;;;0.90;99.90;;;;;;5057472;28;20237;-85
2024/02/09 01:00:25;;;;;;;5.33;3.30;;;1.00;99.90;;;;;;5059272;28;20199;-84
2024/02/09 01:02:52;;;;;;;2.53;2.33;;;0.90;99.90;;;;;;5058221;28;20689;-84
2024/02/09 01:05:19;;;;;;;4.73;3.10;;;0.90;99.90;;;;;;5057988;28;20239;-84
2024/02/09 01:07:50;;;;;;;3.87;3.13;;;0.90;99.90;;;;;;5056233;28;20605;-85
2024/02/09 01:10:18;;;;;;;4.27;2.80;;;1.60;99.90;;;;;;5060554;28;20207;-82
2024/02/09 02:46:13;;;;;;;6.13;3.33;;;1.10;99.90;;;;;;5057262;28;20657;-84
2024/02/09 03:05:08;;;;;;;5.17;3.33;;;1.10;99.90;;;;;;5060210;28;20722;-84
2024/02/09 03:07:35;;;;;;;7.60;3.90;;;1.10;99.90;;;;;;5066045;28;20293;-85
2024/02/09 03:10:04;;;;;;;5.57;3.67;;;1.10;99.90;;;;;;5059746;28;20207;-85
2024/02/09 03:12:32;;;;;;;5.97;3.43;;;1.10;99.90;;;;;;5055252;28;20589;-84
2024/02/09 03:14:59;;;;;;;6.63;3.57;;;1.00;99.90;;;;;;5059500;28;20199;-86
2024/02/09 03:17:27;;;;;;;6.07;3.53;;;1.00;99.90;;;;;;5059513;28;20230;-85
2024/02/09 03:19:54;;;;;;;6.43;3.53;;;1.10;99.90;;;;;;5060558;28;20203;-84
2024/02/09 03:22:21;;;;;;;7.07;3.67;;;1.00;99.90;;;;;;5051883;28;20267;-84
2024/02/09 03:24:47;;;;;;;7.33;3.67;;;1.00;99.90;;;;;;5055234;28;20203;-85
2024/02/09 03:27:16;;;;;;;5.93;3.23;;;1.10;99.90;;;;;;5060211;28;20227;-84
2024/02/09 03:29:42;;;;;;;6.17;3.63;;;1.10;99.90;;;;;;5048494;28;20238;-84
2024/02/09 03:32:13;;;;;;;6.73;3.40;;;1.30;99.90;;;;;;5051099;28;20282;-85
2024/02/09 03:34:42;;;;;;;5.37;3.20;;;1.10;99.90;;;;;;5062504;28;20669;-84
2024/02/09 03:37:10;;;;;;;5.97;3.70;;;1.10;99.90;;;;;;5055080;28;20311;-83
2024/02/09 03:39:38;;;;;;;6.93;3.63;;;1.10;99.90;;;;;;5052985;28;20724;-85
2024/02/09 03:42:05;;;;;;;6.77;3.40;;;1.10;99.90;;;;;;5053025;28;20206;-83
2024/02/09 03:44:33;;;;;;;7.17;3.90;;;1.50;99.90;;;;;;5051880;28;20206;-83
2024/02/09 03:47:00;;;;;;;9.27;3.40;;;1.10;99.90;;;;;;5053565;28;20222;-84
2024/02/09 03:49:26;;;;;;;6.23;3.37;;;1.10;99.90;;;;;;5051637;28;20213;-86
2024/02/09 03:51:53;;;;;;;5.87;3.30;;;1.10;99.90;;;;;;5056877;28;20279;-85
2024/02/09 03:54:20;;;;;;;8.47;3.80;;;1.10;99.90;;;;;;5057883;28;20206;-84
2024/02/09 03:56:47;;;;;;;6.13;3.43;;;1.10;99.90;;;;;;5055733;28;20807;-85
2024/02/09 03:59:15;;;;;;;6.33;3.07;;;1.20;99.90;;;;;;5058224;28;20203;-85
2024/02/09 04:01:43;;;;;;;8.63;4.60;;;1.20;99.90;;;;;;5056665;28;20687;-85
2024/02/09 04:04:10;;;;;;;10.07;4.30;;;1.20;99.90;;;;;;5059887;28;20271;-84
2024/02/09 04:06:36;;;;;;;10.57;4.70;;;2.10;99.90;;;;;;5059775;28;20642;-85
2024/02/09 04:09:03;;;;;;;13.83;5.80;;;1.20;99.90;;;;;;5056588;28;20262;-85
2024/02/09 04:11:30;;;;;;;12.37;6.00;;;1.20;99.90;;;;;;5061328;28;20680;-84
2024/02/09 04:13:57;;;;;;;14.50;6.43;;;1.30;99.90;;;;;;5057707;28;20195;-85
2024/02/09 04:16:24;;;;;;;13.53;6.00;;;1.30;99.90;;;;;;5064495;28;20223;-84
2024/02/09 04:18:52;;;;;;;13.27;6.00;;;1.20;99.90;;;;;;5058919;28;20222;-85
2024/02/09 04:21:19;;;;;;;16.47;6.80;;;1.30;99.90;;;;;;5053507;28;20230;-85
2024/02/09 04:23:46;;;;;;;14.10;6.47;;;1.30;99.90;;;;;;5053789;28;20209;-85
2024/02/09 04:26:13;;;;;;;16.97;7.43;;;1.30;99.90;;;;;;5048509;28;20207;-84
2024/02/09 04:28:40;;;;;;;17.50;7.70;;;1.20;99.90;;;;;;5057276;28;20227;-85
2024/02/09 04:31:07;;;;;;;14.20;6.83;;;1.30;99.90;;;;;;5055190;28;20632;-85
2024/02/09 04:33:36;;;;;;;18.20;7.30;;;1.30;99.90;;;;;;5045928;28;20287;-84
2024/02/09 04:36:05;;;;;;;16.23;7.40;;;1.30;99.90;;;;;;5049220;28;20204;-83
2024/02/09 04:38:34;;;;;;;17.83;7.17;;;1.30;99.90;;;;;;5048981;28;20231;-83
2024/02/09 04:41:01;;;;;;;16.60;7.77;;;1.30;99.90;;;;;;5052231;28;20226;-83
2024/02/09 04:43:27;;;;;;;16.03;6.63;;;1.90;99.90;;;;;;5051279;28;20713;-84
2024/02/09 04:45:54;;;;;;;18.47;8.43;;;1.20;99.90;;;;;;5054496;28;20203;-84
2024/02/09 04:48:21;;;;;;;17.00;7.83;;;1.30;99.90;;;;;;5057504;28;20252;-82
2024/02/09 04:50:48;;;;;;;17.30;7.87;;;1.30;99.90;;;;;;5055854;28;20207;-85
2024/02/09 04:53:18;;;;;;;16.70;7.80;;;1.30;99.90;;;;;;5053289;28;20196;-82
2024/02/09 04:55:45;;;;;;;19.23;8.57;;;1.30;99.90;;;;;;5056702;28;20207;-85
2024/02/09 04:58:13;;;;;;;19.57;8.73;;;1.40;99.90;;;;;;5055550;28;20228;-84
2024/02/09 05:00:40;;;;;;;16.67;8.07;;;1.50;99.90;;;;;;5055248;28;20256;-85
2024/02/09 05:03:07;;;;;;;19.73;8.73;;;1.40;99.90;;;;;;5054007;28;20203;-85
2024/02/09 05:05:33;;;;;;;14.40;7.00;;;1.40;99.90;;;;;;5054842;28;20199;-82
2024/02/09 05:08:01;;;;;;;16.17;7.40;;;1.40;99.90;;;;;;5055599;28;20781;-83
2024/02/09 05:10:31;;;;;;;14.77;6.43;;;1.40;99.90;;;;;;5057272;28;20213;-83
2024/02/09 05:13:02;;;;;;;13.13;7.03;;;1.40;99.90;;;;;;5053657;28;20202;-84
2024/02/09 05:15:30;;;;;;;16.27;6.80;;;1.40;99.90;;;;;;5053012;28;20619;-83
2024/02/09 05:17:56;;;;;;;11.60;5.93;;;1.50;99.90;;;;;;5060600;28;20231;-84
2024/02/09 05:20:23;;;;;;;13.73;5.87;;;1.40;99.90;;;;;;5060825;28;20683;-84
2024/02/09 05:22:50;;;;;;;13.17;6.63;;;1.50;99.90;;;;;;5053947;28;20199;-83
2024/02/09 05:25:17;;;;;;;14.13;6.13;;;1.50;99.90;;;;;;5059143;28;20203;-85
2024/02/09 05:27:47;;;;;;;11.70;5.50;;;1.50;99.90;;;;;;5056162;28;20226;-84
2024/02/09 05:30:14;;;;;;;11.37;5.77;;;1.50;99.90;;;;;;5050000;28;20192;-84
2024/02/09 05:32:42;;;;;;;13.90;6.93;;;1.20;99.90;;;;;;5044879;28;20211;-85
2024/02/09 05:35:09;;;;;;;15.43;6.10;;;1.50;99.90;;;;;;5043871;28;20196;-85
2024/02/09 05:37:36;;;;;;;11.83;5.50;;;1.60;99.90;;;;;;5043498;28;20669;-85
2024/02/09 05:40:03;;;;;;;14.83;6.27;;;1.50;99.90;;;;;;5044113;28;20585;-85
2024/02/09 05:42:29;;;;;;;11.10;5.77;;;1.60;99.90;;;;;;5057254;28;20202;-85
2024/02/09 05:44:58;;;;;;;12.33;6.10;;;1.60;99.90;;;;;;5046824;28;20218;-85
2024/02/09 05:47:30;;;;;;;10.57;5.17;;;1.60;99.90;;;;;;5047343;28;20286;-84
2024/02/09 05:49:58;;;;;;;12.10;5.17;;;1.60;99.90;;;;;;5051168;28;20658;-84
2024/02/09 05:52:26;;;;;;;12.67;5.40;;;1.60;99.90;;;;;;5048722;28;20259;-83
2024/02/09 05:54:52;;;;;;;11.13;5.70;;;1.60;99.90;;;;;;5049734;28;20207;-84
2024/02/09 05:57:19;;;;;;;12.83;5.53;;;1.60;99.90;;;;;;5050261;28;20223;-82
2024/02/09 05:59:46;;;;;;;11.57;5.30;;;1.60;99.90;;;;;;5051761;28;20199;-84
2024/02/09 06:02:14;;;;;;;10.07;5.20;;;1.60;99.90;;;;;;5053449;28;20216;-83
2024/02/09 06:04:41;;;;;;;13.13;6.33;;;1.60;99.90;;;;;;5052930;28;20195;-83
2024/02/09 06:07:08;;;;;;;14.80;6.73;;;1.60;99.90;;;;;;5052710;28;20227;-84
2024/02/09 06:09:36;;;;;;;14.90;5.90;;;1.60;99.90;;;;;;5055459;28;20203;-83
2024/02/09 06:12:04;;;;;;;12.80;5.80;;;1.60;99.90;;;;;;5055050;28;20199;-83
2024/02/09 06:14:31;;;;;;;11.63;5.67;;;1.60;99.90;;;;;;5056146;28;20203;-84
2024/02/09 06:16:58;;;;;;;12.07;5.80;;;1.60;99.90;;;;;;5055257;28;20230;-83
2024/02/09 06:19:26;;;;;;;12.97;5.90;;;1.70;99.90;;;;;;5055772;28;20217;-83
2024/02/09 06:21:55;;;;;;;12.47;6.10;;;1.70;99.90;;;;;;5051180;28;20199;-83
2024/02/09 06:24:24;;;;;;;11.50;5.50;;;1.70;99.90;;;;;;5053612;28;20202;-83
2024/02/09 06:26:51;;;;;;;11.77;5.77;;;1.70;99.90;;;;;;5056072;28;20321;-83
2024/02/09 06:29:18;;;;;;;12.67;6.43;;;1.70;99.90;;;;;;5053632;28;20203;-84
2024/02/09 06:31:45;;;;;;;13.13;5.93;;;1.70;99.90;;;;;;5051923;28;20580;-82
2024/02/09 06:34:12;;;;;;;15.43;7.27;;;1.70;99.90;;;;;;5051297;28;20610;-84
2024/02/09 06:36:40;;;;;;;12.07;6.43;;;1.70;99.90;;;;;;5045855;28;20267;-83
2024/02/09 06:39:09;;;;;;;13.67;6.63;;;1.70;99.90;;;;;;5046387;28;20231;-83
2024/02/09 06:41:36;;;;;;;16.00;8.67;;;2.10;99.90;;;;;;5047785;28;20346;-83
2024/02/09 06:44:03;;;;;;;13.10;6.70;;;1.80;99.90;;;;;;5047448;28;20267;-83
2024/02/09 06:46:29;;;;;;;15.83;7.90;;;1.80;99.90;;;;;;5051447;28;20238;-84
2024/02/09 06:48:57;;;;;;;14.13;6.17;;;1.80;99.90;;;;;;5051913;28;20219;-85
2024/02/09 06:51:25;;;;;;;13.57;7.00;;;1.80;99.90;;;;;;5055577;28;20207;-84
2024/02/09 06:53:55;;;;;;;12.47;6.30;;;1.80;99.90;;;;;;5049377;28;21019;-85
2024/02/09 06:56:22;;;;;;;14.53;6.30;;;1.80;99.90;;;;;;5054333;28;20199;-84
2024/02/09 06:58:50;;;;;;;13.53;6.30;;;1.80;99.90;;;;;;5048402;28;21659;-84
2024/02/09 07:01:18;;;;;;;14.40;7.33;;;1.90;99.90;;;;;;5053430;28;20231;-86
2024/02/09 07:03:45;;;;;;;15.77;7.13;;;1.90;99.90;;;;;;5052008;28;20267;-84
2024/02/09 07:06:12;;;;;;;14.80;6.93;;;1.90;99.90;;;;;;5053224;28;20283;-84
2024/02/09 07:08:40;;;;;;;14.00;6.80;;;1.90;99.90;;;;;;5054525;28;20306;-83
2024/02/09 07:11:11;;;;;;;13.63;6.33;;;1.90;99.90;;;;;;5054707;28;20658;-84
2024/02/09 07:13:38;;;;;;;13.00;6.60;;;1.90;99.90;;;;;;5057855;28;20310;-84
2024/02/09 07:16:06;;;;;;;15.03;7.27;;;1.90;99.90;;;;;;5054230;28;20289;-83
2024/02/09 07:18:37;;;;;;;14.03;7.20;;;1.90;99.90;;;;;;5055605;28;20232;-86
2024/02/09 07:21:04;;;;;;;13.13;7.10;;;2.00;99.90;;;;;;5052294;28;20209;-84
2024/02/09 07:23:31;;;;;;;13.27;7.03;;;2.00;99.90;;;;;;5048751;28;20235;-84
2024/02/09 07:25:58;;;;;;;13.80;6.47;;;2.00;99.90;;;;;;5053168;28;20203;-84
2024/02/09 07:28:26;;;;;;;13.43;6.80;;;2.00;99.90;;;;;;5051144;28;20605;-83
2024/02/09 07:30:55;;;;;;;24.10;9.87;;;2.00;99.90;;;;;;5053286;28;20206;-86
2024/02/09 07:33:22;;;;;;;21.57;9.57;;;2.00;99.90;;;;;;5051571;28;20619;-84
2024/02/09 07:35:49;;;;;;;18.17;8.30;;;2.10;99.90;;;;;;5049233;28;20206;-84
2024/02/09 07:38:16;;;;;;;13.47;6.90;;;2.10;99.90;;;;;;5050881;28;20316;-85
2024/02/09 07:40:43;;;;;;;15.87;7.63;;;2.10;99.90;;;;;;5052955;28;20196;-83
2024/02/09 07:43:10;;;;;;;12.80;6.93;;;2.10;99.90;;;;;;5049879;28;20208;-83
2024/02/09 07:45:38;;;;;;;15.93;7.70;;;2.10;99.90;;;;;;5046692;28;20410;-85
2024/02/09 07:48:05;;;;;;;16.60;8.00;;;2.20;99.90;;;;;;5053066;28;20227;-85
2024/02/09 07:50:34;;;;;;;15.37;8.00;;;2.10;99.90;;;;;;5052684;28;20691;-84
2024/02/09 07:53:02;;;;;;;14.93;7.57;;;2.20;99.90;;;;;;5049985;28;20211;-84
2024/02/09 07:55:28;;;;;;;13.57;6.87;;;2.10;99.90;;;;;;5055105;28;20281;-85
2024/02/09 07:57:55;;;;;;;15.30;7.10;;;2.40;99.90;;;;;;5053745;28;20295;-84
2024/02/09 08:00:23;;;;;;;14.30;7.03;;;2.20;99.90;;;;;;5056602;28;20286;-85
2024/02/09 08:02:51;;;;;;;13.83;7.43;;;2.20;99.90;;;;;;5061140;28;20207;-84
2024/02/09 08:05:18;;;;;;;16.07;7.83;;;2.30;99.90;;;;;;5058023;28;20226;-84
2024/02/09 08:07:46;;;;;;;15.00;7.53;;;2.20;99.90;;;;;;5054169;28;20241;-86
2024/02/09 08:10:14;;;;;;;17.77;8.63;;;2.30;99.90;;;;;;5055964;28;20223;-85
2024/02/09 08:12:41;;;;;;;15.73;7.60;;;2.30;99.90;;;;;;5057494;28;20203;-83
2024/02/09 08:15:09;;;;;;;16.87;8.67;;;2.40;99.90;;;;;;5054336;28;20729;-84
2024/02/09 08:17:36;;;;;;;16.83;8.17;;;2.40;99.90;;;;;;5054853;28;20233;-84
2024/02/09 08:20:06;;;;;;;18.67;9.50;;;2.90;99.90;;;;;;5050083;28;20662;-85
2024/02/09 08:22:34;;;;;;;16.47;8.30;;;2.40;99.90;;;;;;5052787;28;20293;-84
2024/02/09 08:25:01;;;;;;;19.23;8.57;;;2.50;99.90;;;;;;5055890;28;20895;-83
2024/02/09 08:27:28;;;;;;;19.40;9.77;;;2.50;99.90;;;;;;5052951;28;20291;-83
2024/02/09 08:29:56;;;;;;;19.07;9.17;;;2.50;99.90;;;;;;5051327;28;20214;-84
2024/02/09 08:32:24;;;;;;;19.27;10.13;;;2.50;99.90;;;;;;5051377;28;22076;-84
2024/02/09 08:34:51;;;;;;;19.23;8.87;;;2.60;99.90;;;;;;5054885;28;20203;-84
2024/02/09 08:37:19;;;;;;;18.93;9.67;;;2.60;99.90;;;;;;5054841;28;20218;-84
2024/02/09 08:39:47;;;;;;;18.10;8.50;;;2.60;99.90;;;;;;5056704;28;20223;-84
2024/02/09 08:42:14;;;;;;;19.03;8.77;;;2.60;99.90;;;;;;5058391;28;20268;-83
2024/02/09 08:44:41;;;;;;;17.27;8.97;;;2.60;99.90;;;;;;5055967;28;20234;-84
2024/02/09 08:47:08;;;;;;;16.43;8.53;;;2.60;99.90;;;;;;5056787;28;20227;-84
2024/02/09 08:49:35;;;;;;;21.80;9.97;;;2.80;99.90;;;;;;5049499;28;20302;-84
2024/02/09 08:52:02;;;;;;;19.00;9.07;;;2.80;99.90;;;;;;5050690;28;20725;-83
2024/02/09 08:54:30;;;;;;;20.93;9.07;;;2.90;99.90;;;;;;5053915;28;20210;-84
2024/02/09 08:56:57;;;;;;;18.90;8.70;;;2.90;99.90;;;;;;5049980;28;20776;-83
2024/02/09 08:59:24;;;;;;;19.97;9.83;;;3.00;99.90;;;;;;5053568;28;20218;-84
2024/02/09 09:01:51;;;;;;;23.40;11.10;;;3.00;99.90;;;;;;5052652;28;20208;-85
2024/02/09 09:04:19;;;;;;;20.87;10.83;;;3.10;99.90;;;;;;5052523;28;20215;-85
2024/02/09 09:06:46;;;;;;;19.40;9.53;;;3.30;99.90;;;;;;5053383;28;20218;-85
2024/02/09 09:09:14;;;;;;;18.73;9.63;;;3.30;99.90;;;;;;5052251;28;20574;-84
2024/02/09 09:11:44;;;;;;;21.67;10.93;;;3.40;99.90;;;;;;5054269;28;20578;-84
2024/02/09 09:14:11;;;;;;;18.27;9.13;;;3.50;99.90;;;;;;5054579;28;20679;-84
2024/02/09 09:16:38;;;;;;;22.07;9.93;;;3.50;99.90;;;;;;5056547;28;20207;-85
2024/02/09 09:19:07;;;;;;;19.30;9.53;;;3.60;99.90;;;;;;5051480;28;20211;-84
2024/02/09 09:21:34;;;;;;;19.27;9.40;;;3.70;99.90;;;;;;5045223;28;20215;-85
2024/02/09 09:24:01;;;;;;;17.20;8.90;;;3.80;99.90;;;;;;5051589;28;20302;-84
2024/02/09 09:26:30;;;;;;;18.93;9.40;;;3.80;99.90;;;;;;5052349;28;20209;-83
2024/02/09 09:28:58;;;;;;;20.50;9.93;;;3.90;99.90;;;;;;5051574;28;20227;-85
2024/02/09 09:31:26;;;;;;;17.90;9.90;;;4.30;99.90;;;;;;5048725;28;20234;-85
2024/02/09 09:33:54;;;;;;;17.47;9.40;;;4.20;99.90;;;;;;5049426;28;20199;-85
2024/02/09 09:36:21;;;;;;;19.77;9.77;;;4.20;99.90;;;;;;5050029;28;20222;-85
2024/02/09 09:38:48;;;;;;;18.13;9.50;;;4.30;99.90;;;;;;5049116;28;20310;-84
2024/02/09 09:41:16;;;;;;;18.73;9.60;;;4.70;99.90;;;;;;5053966;28;20213;-84
2024/02/09 09:43:43;;;;;;;19.73;9.03;;;4.70;99.90;;;;;;5051096;28;20606;-84
2024/02/09 09:46:11;;;;;;;19.57;9.67;;;4.70;99.90;;;;;;5053123;28;20275;-84
2024/02/09 09:48:39;;;;;;;16.17;9.10;;;4.90;99.90;;;;;;5050542;28;20231;-84
2024/02/09 09:51:06;;;;;;;18.53;9.70;;;5.10;99.90;;;;;;5050767;28;20211;-83
2024/02/09 09:53:39;;;;;;;19.93;9.77;;;5.50;99.90;;;;;;5054749;28;20262;-83
2024/02/09 09:56:07;;;;;;;18.43;9.40;;;5.70;99.90;;;;;;5056472;28;20601;-84
2024/02/09 09:58:35;;;;;;;17.83;9.37;;;5.90;99.90;;;;;;5053960;28;20276;-82
2024/02/09 10:01:03;;;;;;;18.53;9.67;;;6.20;99.90;;;;;;5047669;28;20215;-83
2024/02/09 10:03:32;;;;;;;17.57;9.63;;;6.40;99.90;;;;;;5050334;28;20294;-82
2024/02/09 10:05:59;;;;;;;16.67;8.50;;;6.70;99.90;;;;;;5049609;28;20732;-82
2024/02/09 10:08:28;;;;;;;13.90;8.10;;;6.60;99.90;;;;;;5047820;28;20245;-81
2024/02/09 10:10:56;;;;;;;12.97;7.07;;;6.70;99.90;;;;;;5051278;28;20230;-82
2024/02/09 10:13:23;;;;;;;16.27;7.73;;;7.00;99.90;;;;;;5054573;28;20199;-83
2024/02/09 10:15:52;;;;;;;11.23;4.70;;;6.90;99.90;;;;;;5054832;28;20203;-82
2024/02/09 10:18:19;;;;;;;4.13;2.90;;;7.40;99.90;;;;;;5052003;28;20675;-83
2024/02/09 10:20:48;;;;;;;6.00;3.00;;;7.60;99.90;;;;;;5045251;28;20725;-82
2024/02/09 10:23:15;;;;;;;10.30;3.03;;;7.70;99.90;;;;;;5044805;28;20701;-82
2024/02/09 10:25:43;;;;;;;4.60;2.53;;;7.90;99.90;;;;;;5046382;28;20214;-82
2024/02/09 10:28:11;;;;;;;3.43;2.30;;;8.50;99.90;;;;;;5048683;28;20222;-82
2024/02/09 10:30:38;;;;;;;4.23;2.30;;;8.10;99.90;;;;;;5049536;28;20199;-82
2024/02/09 10:33:06;;;;;;;4.33;2.20;;;8.00;99.90;;;;;;5048033;28;20585;-80
2024/02/09 10:35:34;;;;;;;2.70;2.17;;;8.10;99.90;;;;;;5045162;28;20212;-83
2024/02/09 10:38:03;;;;;;;3.47;1.80;;;8.10;99.90;;;;;;5046295;28;20322;-83
2024/02/09 10:40:30;;;;;;;2.70;2.00;;;8.10;99.90;;;;;;5045293;28;20226;-83
2024/02/09 10:42:58;;;;;;;4.10;1.67;;;8.20;99.90;;;;;;5049876;28;20271;-83
2024/02/09 10:45:27;;;;;;;3.00;1.77;;;8.40;99.90;;;;;;5054462;28;20674;-82
2024/02/09 10:47:57;;;;;;;3.30;2.20;;;8.40;99.90;;;;;;5050149;28;20223;-83
2024/02/09 10:50:23;;;;;;;4.73;2.00;;;8.50;99.90;;;;;;5052411;28;20619;-83
2024/02/09 10:52:53;;;;;;;5.10;1.90;;;9.00;99.90;;;;;;5050990;28;20210;-83
2024/02/09 10:55:23;;;;;;;4.50;1.90;;;8.70;99.90;;;;;;5050889;28;20234;-83
2024/02/09 10:57:50;;;;;;;3.47;2.20;;;8.80;99.90;;;;;;5045067;28;20219;-84
2024/02/09 11:00:18;;;;;;;2.47;1.87;;;9.10;99.90;;;;;;5048761;28;20701;-83
2024/02/09 11:02:45;;;;;;;4.90;2.17;;;9.40;99.90;;;;;;5049021;28;20720;-82
2024/02/09 11:05:14;;;;;;;3.27;2.03;;;9.40;99.90;;;;;;5052271;28;20218;-82
2024/02/09 11:07:43;;;;;;;7.07;2.30;;;9.60;99.90;;;;;;5052785;28;20238;-82
2024/02/09 11:10:10;;;;;;;2.70;1.90;;;9.80;99.90;;;;;;5049723;28;20231;-82
2024/02/09 11:12:38;;;;;;;3.73;1.97;;;10.00;99.90;;;;;;5058862;28;20213;-83
2024/02/09 11:15:13;;;;;;;4.20;1.90;;;10.20;99.90;;;;;;5049367;28;20207;-84
2024/02/09 11:17:44;;;;;;;4.20;1.77;;;10.20;99.90;;;;;;5051497;28;20708;-83
2024/02/09 11:20:12;;;;;;;5.80;2.90;;;10.40;99.90;;;;;;5046653;28;20227;-83
2024/02/09 11:22:43;;;;;;;4.80;1.80;;;10.40;99.90;;;;;;5044590;28;20275;-83
2024/02/09 11:25:10;;;;;;;2.40;1.53;;;10.30;99.90;;;;;;5046766;28;20225;-82
2024/02/09 11:27:47;;;;;;;3.60;1.90;;;10.40;99.90;;;;;;5051750;28;20301;-84
2024/02/09 11:30:14;;;;;;;3.27;1.70;;;10.40;99.90;;;;;;5046770;28;20190;-83
2024/02/09 11:32:41;;;;;;;4.30;1.93;;;10.60;99.90;;;;;;5050693;28;20207;-84
2024/02/09 11:35:10;;;;;;;2.33;1.80;;;10.70;99.90;;;;;;5055100;28;20214;-82
2024/02/09 11:37:37;;;;;;;4.47;1.83;;;11.00;99.90;;;;;;5049406;28;20321;-83
2024/02/09 11:40:06;;;;;;;1.80;1.40;;;11.20;99.90;;;;;;5055953;28;20276;-82
2024/02/09 11:42:33;;;;;;;3.80;1.90;;;11.40;99.90;;;;;;5052820;28;20302;-82
2024/02/09 11:45:02;;;;;;;2.13;1.53;;;11.50;99.90;;;;;;5053605;28;20206;-83
2024/02/09 11:47:30;;;;;;;3.13;1.90;;;11.50;99.90;;;;;;5052560;28;20310;-82
2024/02/09 11:49:57;;;;;;;6.50;1.87;;;11.60;99.90;;;;;;5054298;28;20200;-83
2024/02/09 11:52:24;;;;;;;3.50;1.77;;;11.50;99.90;;;;;;5058156;28;20209;-81
2024/02/09 11:54:50;;;;;;;6.13;1.80;;;11.40;99.90;;;;;;5058238;28;20696;-83
2024/02/09 11:57:17;;;;;;;2.03;1.63;;;11.50;99.90;;;;;;5053274;28;20665;-83
2024/02/09 11:59:44;;;;;;;1.83;1.57;;;11.60;99.90;;;;;;5053609;28;20239;-82
2024/02/09 12:02:13;;;;;;;3.30;1.47;;;11.60;99.90;;;;;;5058007;28;20227;-82
2024/02/09 12:04:40;;;;;;;1.77;1.40;;;11.90;99.90;;;;;;5052768;28;20207;-82
2024/02/09 12:07:07;;;;;;;3.17;1.60;;;11.90;99.90;;;;;;5058226;28;20299;-83
2024/02/09 12:09:34;;;;;;;2.97;1.67;;;11.90;99.90;;;;;;5058718;28;20237;-81
2024/02/09 12:12:01;;;;;;;3.93;1.60;;;11.80;99.90;;;;;;5053224;28;20554;-80
2024/02/09 12:14:28;;;;;;;3.60;1.50;;;11.80;99.90;;;;;;5056581;28;20213;-82
2024/02/09 12:16:55;;;;;;;2.83;1.60;;;11.90;99.90;;;;;;5055133;28;20207;-82
2024/02/09 12:19:23;;;;;;;4.30;1.70;;;12.00;99.90;;;;;;5051343;28;20223;-82
2024/02/09 12:21:51;;;;;;;2.47;1.57;;;12.00;99.90;;;;;;5057774;28;20230;-83
2024/02/09 12:24:18;;;;;;;3.90;1.60;;;12.30;99.90;;;;;;5048455;28;20243;-79
2024/02/09 12:26:45;;;;;;;4.10;1.70;;;12.70;99.90;;;;;;5047367;28;20199;-83
2024/02/09 12:29:12;;;;;;;2.00;1.50;;;13.10;99.90;;;;;;5047807;28;20665;-83
2024/02/09 12:31:41;;;;;;;2.67;1.60;;;13.50;99.90;;;;;;5046137;28;20207;-81
2024/02/09 12:34:09;;;;;;;3.87;1.70;;;13.90;99.90;;;;;;5048547;28;20632;-82
2024/02/09 12:36:37;;;;;;;3.10;2.30;;;13.50;1.00;;;;;;5046768;28;20207;-84
2024/02/09 12:39:08;;;;;;;2.73;1.83;;;13.20;45.50;;;;;;5054395;28;20834;-82
2024/02/09 12:41:40;;;;;;;5.97;1.90;;;12.90;1.00;;;;;;5048020;28;20218;-82
2024/02/09 12:44:08;;;;;;;3.92;1.35;;;12.90;1.00;;;;;;5050856;28;20203;-80
2024/02/09 12:46:36;;;;;;;1.53;1.37;;;13.60;99.90;;;;;;5048392;28;20472;-81
2024/02/09 12:49:02;;;;;;;4.43;1.90;;;13.60;58.00;;;;;;5050245;28;20231;-81
2024/02/09 12:51:32;;;;;;;2.23;1.80;;;13.10;1.00;;;;;;5052687;28;20199;-81
2024/02/09 12:54:03;;;;;;;5.73;2.90;;;12.90;99.90;;;;;;5057901;28;20191;-82
2024/02/09 12:56:30;;;;;;;2.73;1.90;;;12.80;1.00;;;;;;5056023;28;20207;-81
2024/02/09 12:58:56;;;;;;;1.93;1.60;;;12.80;1.00;;;;;;5056155;28;20215;-81
2024/02/09 13:01:23;;;;;;;4.63;1.93;;;12.70;16.70;;;;;;5052479;28;20224;-82
2024/02/09 13:03:50;;;;;;;3.40;1.63;;;12.70;1.00;;;;;;5049447;28;20208;-83
2024/02/09 13:06:17;;;;;;;4.37;1.80;;;12.80;99.90;;;;;;5051989;28;20259;-81
2024/02/09 13:08:44;;;;;;;2.10;1.90;;;13.20;1.00;;;;;;5053420;28;20699;-85
2024/02/09 13:11:12;;;;;;;4.63;1.93;;;13.60;99.90;;;;;;5058210;28;20238;-82
2024/02/09 13:13:39;;;;;;;3.50;1.93;;;13.70;1.00;;;;;;5055416;28;20214;-81
2024/02/09 13:16:08;;;;;;;4.03;1.88;;;13.40;1.00;;;;;;5054119;28;20203;-83
2024/02/09 13:18:35;;;;;;;3.40;1.95;;;13.30;1.00;;;;;;5058303;28;20223;-83
2024/02/09 13:21:01;;;;;;;3.10;1.90;;;13.30;1.00;;;;;;5043139;28;20631;-82
2024/02/09 13:23:29;;;;;;;3.73;2.10;;;13.60;13.90;;;;;;5049593;28;20230;-80
2024/02/09 13:25:57;;;;;;;3.23;2.00;;;13.30;24.80;;;;;;5044249;28;20307;-82
2024/02/09 13:28:24;;;;;;;2.53;1.90;;;13.10;90.10;;;;;;5047934;28;20223;-82
2024/02/09 13:30:51;;;;;;;4.77;2.10;;;13.00;99.90;;;;;;5047786;28;20212;-83
2024/02/09 13:33:19;;;;;;;2.95;1.90;;;13.10;99.90;;;;;;5050626;28;20266;-80
2024/02/09 13:35:46;;;;;;;4.10;2.03;;;13.10;99.90;;;;;;5047615;28;20206;-81
2024/02/09 13:38:12;;;;;;;2.93;1.70;;;13.00;99.90;;;;;;5055898;28;20253;-80
2024/02/09 13:40:41;;;;;;;3.63;2.13;;;13.10;1.00;;;;;;5047552;28;20472;-81
2024/02/09 13:43:09;;;;;;;3.77;1.87;;;13.00;1.00;;;;;;5051755;28;20249;-82
2024/02/09 13:45:39;;;;;;;3.07;1.70;;;13.00;1.00;;;;;;5046386;28;20199;-82
2024/02/09 13:48:08;;;;;;;3.63;1.83;;;12.90;1.00;;;;;;5051547;28;20219;-82
2024/02/09 13:50:35;;;;;;;2.03;1.60;;;12.80;1.00;;;;;;5050596;28;20676;-83
2024/02/09 13:53:03;;;;;;;2.13;1.70;;;12.60;1.00;;;;;;5052860;28;20574;-83
2024/02/09 13:55:32;;;;;;;2.03;1.70;;;12.50;1.00;;;;;;5053956;28;20571;-82
2024/02/09 13:57:59;;;;;;;3.23;2.07;;;12.40;1.00;;;;;;5050860;28;20754;-82
2024/02/09 14:00:26;;;;;;;2.03;1.83;;;12.20;99.90;;;;;;5050277;28;20218;-81
2024/02/09 14:02:54;;;;;;;3.50;2.03;;;12.10;1.00;;;;;;5050450;28;20246;-82
2024/02/09 14:05:21;;;;;;;3.27;1.60;;;12.10;1.00;;;;;;5052867;28;20627;-81
2024/02/09 14:07:50;;;;;;;3.57;1.77;;;12.00;1.00;;;;;;5062223;28;20230;-81
2024/02/09 14:10:17;;;;;;;1.73;1.63;;;12.00;99.90;;;;;;5051628;28;20199;-81
2024/02/09 14:12:43;;;;;;;2.77;1.70;;;11.90;99.90;;;;;;5045060;28;20222;-81
2024/02/09 14:15:10;;;;;;;3.37;2.07;;;12.00;99.90;;;;;;5051704;28;20195;-81
2024/02/09 14:17:38;;;;;;;3.03;1.90;;;12.00;99.90;;;;;;5054708;28;20214;-81
2024/02/09 14:20:07;;;;;;;1.97;1.77;;;12.00;99.90;;;;;;5053278;28;20223;-81
2024/02/09 14:22:34;;;;;;;5.73;2.10;;;11.90;99.90;;;;;;5042507;28;20210;-80
2024/02/09 14:25:01;;;;;;;3.57;2.37;;;12.00;99.90;;;;;;5047443;28;20204;-80
2024/02/09 14:27:29;;;;;;;4.67;2.17;;;11.90;99.90;;;;;;5045150;28;20291;-81
2024/02/09 14:29:58;;;;;;;2.60;2.20;;;11.90;99.90;;;;;;5044738;28;20199;-81
2024/02/09 14:32:24;;;;;;;3.33;2.73;;;11.90;99.90;;;;;;5045527;28;20513;-81
2024/02/09 14:34:51;;;;;;;4.23;2.20;;;11.90;99.90;;;;;;5041773;28;20202;-81
2024/02/09 14:37:21;;;;;;;2.50;2.30;;;12.00;99.90;;;;;;5047465;28;20689;-81
2024/02/09 14:39:48;;;;;;;3.77;2.43;;;12.00;99.90;;;;;;5050180;28;20229;-81
2024/02/09 14:42:15;;;;;;;4.07;2.50;;;12.00;99.90;;;;;;5049956;28;20200;-82